sensor_id;sensor_type;location;lat;lon;timestamp;temperature;humidity
43561;DHT22;32305;46.410;17.394;2023-07-08T00:00:41;25.90;47.80
43561;DHT22;32305;46.410;17.394;2023-07-08T00:03:08;25.90;47.90
43561;DHT22;32305;46.410;17.394;2023-07-08T00:05:36;25.90;47.90
43561;DHT22;32305;46.410;17.394;2023-07-08T00:08:03;25.90;48.00
43561;DHT22;32305;46.410;17.394;2023-07-08T00:10:31;25.80;47.90
43561;DHT22;32305;46.410;17.394;2023-07-08T00:12:58;25.80;47.90
43561;DHT22;32305;46.410;17.394;2023-07-08T00:15:26;25.80;47.90
43561;DHT22;32305;46.410;17.394;2023-07-08T00:17:53;25.80;48.00
43561;DHT22;32305;46.410;17.394;2023-07-08T00:20:23;25.80;48.00
43561;DHT22;32305;46.410;17.394;2023-07-08T00:22:50;25.80;48.00
43561;DHT22;32305;46.410;17.394;2023-07-08T00:25:17;25.80;48.10
43561;DHT22;32305;46.410;17.394;2023-07-08T00:27:46;25.80;48.10
43561;DHT22;32305;46.410;17.394;2023-07-08T00:30:21;25.70;48.10
43561;DHT22;32305;46.410;17.394;2023-07-08T00:32:48;25.80;48.10
43561;DHT22;32305;46.410;17.394;2023-07-08T00:35:31;25.80;48.20
43561;DHT22;32305;46.410;17.394;2023-07-08T00:37:59;25.70;48.10
43561;DHT22;32305;46.410;17.394;2023-07-08T00:40:30;25.70;48.10
43561;DHT22;32305;46.410;17.394;2023-07-08T00:42:59;25.70;48.20
43561;DHT22;32305;46.410;17.394;2023-07-08T00:45:38;25.70;48.20
43561;DHT22;32305;46.410;17.394;2023-07-08T00:48:23;25.70;48.20
43561;DHT22;32305;46.410;17.394;2023-07-08T00:50:52;25.70;48.20
43561;DHT22;32305;46.410;17.394;2023-07-08T00:53:23;25.70;48.20
43561;DHT22;32305;46.410;17.394;2023-07-08T00:55:55;25.70;48.30
43561;DHT22;32305;46.410;17.394;2023-07-08T00:58:23;25.70;48.20
43561;DHT22;32305;46.410;17.394;2023-07-08T01:00:51;25.70;48.30
43561;DHT22;32305;46.410;17.394;2023-07-08T01:03:20;25.70;48.30
43561;DHT22;32305;46.410;17.394;2023-07-08T01:05:48;25.70;48.30
43561;DHT22;32305;46.410;17.394;2023-07-08T01:08:16;25.70;48.30
43561;DHT22;32305;46.410;17.394;2023-07-08T01:10:44;25.70;48.30
43561;DHT22;32305;46.410;17.394;2023-07-08T01:13:12;25.70;48.40
43561;DHT22;32305;46.410;17.394;2023-07-08T01:15:41;25.70;48.40
43561;DHT22;32305;46.410;17.394;2023-07-08T01:18:09;25.70;48.40
43561;DHT22;32305;46.410;17.394;2023-07-08T01:20:36;25.70;48.40
43561;DHT22;32305;46.410;17.394;2023-07-08T01:23:03;25.70;48.40
43561;DHT22;32305;46.410;17.394;2023-07-08T01:25:31;25.70;48.40
43561;DHT22;32305;46.410;17.394;2023-07-08T01:27:58;25.70;48.40
43561;DHT22;32305;46.410;17.394;2023-07-08T01:30:26;25.70;48.40
43561;DHT22;32305;46.410;17.394;2023-07-08T01:32:55;25.70;48.40
43561;DHT22;32305;46.410;17.394;2023-07-08T01:35:23;25.70;48.40
43561;DHT22;32305;46.410;17.394;2023-07-08T01:37:51;25.70;48.40
43561;DHT22;32305;46.410;17.394;2023-07-08T01:40:25;25.70;48.40
43561;DHT22;32305;46.410;17.394;2023-07-08T01:42:53;25.70;48.40
43561;DHT22;32305;46.410;17.394;2023-07-08T01:45:21;25.70;48.40
43561;DHT22;32305;46.410;17.394;2023-07-08T01:47:50;25.70;48.40
43561;DHT22;32305;46.410;17.394;2023-07-08T01:50:17;25.70;48.40
43561;DHT22;32305;46.410;17.394;2023-07-08T01:52:45;25.70;48.40
43561;DHT22;32305;46.410;17.394;2023-07-08T01:55:12;25.70;48.40
43561;DHT22;32305;46.410;17.394;2023-07-08T01:57:39;25.70;48.40
43561;DHT22;32305;46.410;17.394;2023-07-08T02:00:06;25.70;48.40
43561;DHT22;32305;46.410;17.394;2023-07-08T02:02:34;25.70;48.40
43561;DHT22;32305;46.410;17.394;2023-07-08T02:05:00;25.70;48.40
43561;DHT22;32305;46.410;17.394;2023-07-08T02:07:27;25.70;48.40
43561;DHT22;32305;46.410;17.394;2023-07-08T02:09:54;25.70;48.50
43561;DHT22;32305;46.410;17.394;2023-07-08T02:12:21;25.70;48.50
43561;DHT22;32305;46.410;17.394;2023-07-08T02:14:48;25.60;48.50
43561;DHT22;32305;46.410;17.394;2023-07-08T02:17:15;25.70;48.50
43561;DHT22;32305;46.410;17.394;2023-07-08T02:19:43;25.60;48.50
43561;DHT22;32305;46.410;17.394;2023-07-08T02:22:10;25.60;49.10
43561;DHT22;32305;46.410;17.394;2023-07-08T02:24:38;25.60;48.50
43561;DHT22;32305;46.410;17.394;2023-07-08T02:27:05;25.60;48.50
43561;DHT22;32305;46.410;17.394;2023-07-08T02:29:32;25.60;48.60
43561;DHT22;32305;46.410;17.394;2023-07-08T02:31:59;25.60;48.60
43561;DHT22;32305;46.410;17.394;2023-07-08T02:34:26;25.60;48.60
43561;DHT22;32305;46.410;17.394;2023-07-08T02:36:53;25.60;48.70
43561;DHT22;32305;46.410;17.394;2023-07-08T02:39:20;25.60;48.60
43561;DHT22;32305;46.410;17.394;2023-07-08T02:41:47;25.60;48.70
43561;DHT22;32305;46.410;17.394;2023-07-08T02:44:14;25.60;48.70
43561;DHT22;32305;46.410;17.394;2023-07-08T02:46:41;25.60;48.70
43561;DHT22;32305;46.410;17.394;2023-07-08T02:49:08;25.60;48.70
43561;DHT22;32305;46.410;17.394;2023-07-08T02:51:35;25.60;48.70
43561;DHT22;32305;46.410;17.394;2023-07-08T02:54:02;25.60;48.70
43561;DHT22;32305;46.410;17.394;2023-07-08T02:56:29;25.60;48.70
43561;DHT22;32305;46.410;17.394;2023-07-08T02:58:56;25.50;48.70
43561;DHT22;32305;46.410;17.394;2023-07-08T03:01:23;25.60;48.80
43561;DHT22;32305;46.410;17.394;2023-07-08T03:03:50;25.60;48.80
43561;DHT22;32305;46.410;17.394;2023-07-08T03:06:17;25.50;48.70
43561;DHT22;32305;46.410;17.394;2023-07-08T03:08:44;25.60;48.80
43561;DHT22;32305;46.410;17.394;2023-07-08T03:11:11;25.50;48.70
43561;DHT22;32305;46.410;17.394;2023-07-08T03:13:38;25.50;48.70
43561;DHT22;32305;46.410;17.394;2023-07-08T03:16:05;25.60;48.80
43561;DHT22;32305;46.410;17.394;2023-07-08T03:18:39;25.50;48.70
43561;DHT22;32305;46.410;17.394;2023-07-08T03:21:13;25.50;48.80
43561;DHT22;32305;46.410;17.394;2023-07-08T03:23:40;25.60;48.80
43561;DHT22;32305;46.410;17.394;2023-07-08T03:26:11;25.60;48.80
43561;DHT22;32305;46.410;17.394;2023-07-08T03:28:39;25.60;48.80
43561;DHT22;32305;46.410;17.394;2023-07-08T03:31:07;25.60;48.80
43561;DHT22;32305;46.410;17.394;2023-07-08T03:33:35;25.60;48.70
43561;DHT22;32305;46.410;17.394;2023-07-08T03:36:02;25.60;48.70
43561;DHT22;32305;46.410;17.394;2023-07-08T03:38:29;25.60;48.70
43561;DHT22;32305;46.410;17.394;2023-07-08T03:40:56;25.60;48.60
43561;DHT22;32305;46.410;17.394;2023-07-08T03:43:23;25.70;48.70
43561;DHT22;32305;46.410;17.394;2023-07-08T03:45:50;25.70;48.60
43561;DHT22;32305;46.410;17.394;2023-07-08T03:48:17;25.70;48.60
43561;DHT22;32305;46.410;17.394;2023-07-08T03:50:44;25.70;48.50
43561;DHT22;32305;46.410;17.394;2023-07-08T03:53:11;25.70;48.50
43561;DHT22;32305;46.410;17.394;2023-07-08T03:55:38;25.70;48.40
43561;DHT22;32305;46.410;17.394;2023-07-08T03:58:05;25.70;48.40
43561;DHT22;32305;46.410;17.394;2023-07-08T04:00:32;25.80;48.40
43561;DHT22;32305;46.410;17.394;2023-07-08T04:02:59;25.70;48.30
43561;DHT22;32305;46.410;17.394;2023-07-08T04:05:26;25.80;48.30
43561;DHT22;32305;46.410;17.394;2023-07-08T04:07:55;25.80;48.30
43561;DHT22;32305;46.410;17.394;2023-07-08T04:10:22;25.80;48.20
43561;DHT22;32305;46.410;17.394;2023-07-08T04:12:49;25.80;48.20
43561;DHT22;32305;46.410;17.394;2023-07-08T04:15:16;25.80;48.20
43561;DHT22;32305;46.410;17.394;2023-07-08T04:17:45;25.90;48.30
43561;DHT22;32305;46.410;17.394;2023-07-08T04:20:16;25.90;48.30
43561;DHT22;32305;46.410;17.394;2023-07-08T04:22:45;25.90;48.20
43561;DHT22;32305;46.410;17.394;2023-07-08T04:25:12;25.90;48.20
43561;DHT22;32305;46.410;17.394;2023-07-08T04:27:41;25.90;48.20
43561;DHT22;32305;46.410;17.394;2023-07-08T04:30:14;25.90;48.10
43561;DHT22;32305;46.410;17.394;2023-07-08T04:32:45;25.90;48.10
43561;DHT22;32305;46.410;17.394;2023-07-08T04:35:12;25.90;48.10
43561;DHT22;32305;46.410;17.394;2023-07-08T04:37:39;25.90;48.10
43561;DHT22;32305;46.410;17.394;2023-07-08T04:40:09;25.80;48.10
43561;DHT22;32305;46.410;17.394;2023-07-08T04:42:40;25.80;48.10
43561;DHT22;32305;46.410;17.394;2023-07-08T04:45:08;25.60;48.20
43561;DHT22;32305;46.410;17.394;2023-07-08T04:47:35;25.40;48.50
43561;DHT22;32305;46.410;17.394;2023-07-08T04:50:02;25.10;48.90
43561;DHT22;32305;46.410;17.394;2023-07-08T04:52:29;24.90;49.50
43561;DHT22;32305;46.410;17.394;2023-07-08T04:54:56;24.60;49.40
43561;DHT22;32305;46.410;17.394;2023-07-08T04:57:23;24.30;49.00
43561;DHT22;32305;46.410;17.394;2023-07-08T04:59:51;23.90;48.60
43561;DHT22;32305;46.410;17.394;2023-07-08T05:02:18;23.60;48.90
43561;DHT22;32305;46.410;17.394;2023-07-08T05:04:46;23.20;48.80
43561;DHT22;32305;46.410;17.394;2023-07-08T05:07:13;22.90;48.80
43561;DHT22;32305;46.410;17.394;2023-07-08T05:09:40;22.50;49.10
43561;DHT22;32305;46.410;17.394;2023-07-08T05:12:07;22.20;49.20
43561;DHT22;32305;46.410;17.394;2023-07-08T05:14:34;21.90;49.50
43561;DHT22;32305;46.410;17.394;2023-07-08T05:17:01;21.60;50.20
43561;DHT22;32305;46.410;17.394;2023-07-08T05:19:29;21.40;51.00
43561;DHT22;32305;46.410;17.394;2023-07-08T05:21:56;21.20;51.20
43561;DHT22;32305;46.410;17.394;2023-07-08T05:24:23;21.00;51.70
43561;DHT22;32305;46.410;17.394;2023-07-08T05:26:50;20.90;52.20
43561;DHT22;32305;46.410;17.394;2023-07-08T05:29:17;20.70;52.60
43561;DHT22;32305;46.410;17.394;2023-07-08T05:31:44;20.60;53.70
43561;DHT22;32305;46.410;17.394;2023-07-08T05:34:14;20.60;53.80
43561;DHT22;32305;46.410;17.394;2023-07-08T05:36:41;20.50;54.00
43561;DHT22;32305;46.410;17.394;2023-07-08T05:39:08;20.50;53.80
43561;DHT22;32305;46.410;17.394;2023-07-08T05:41:35;20.40;53.70
43561;DHT22;32305;46.410;17.394;2023-07-08T05:44:02;20.40;53.80
43561;DHT22;32305;46.410;17.394;2023-07-08T05:46:29;20.30;53.90
43561;DHT22;32305;46.410;17.394;2023-07-08T05:48:56;20.30;53.70
43561;DHT22;32305;46.410;17.394;2023-07-08T05:51:27;20.20;54.00
43561;DHT22;32305;46.410;17.394;2023-07-08T05:53:54;20.20;54.20
43561;DHT22;32305;46.410;17.394;2023-07-08T05:56:21;20.20;54.00
43561;DHT22;32305;46.410;17.394;2023-07-08T05:58:48;20.20;54.20
43561;DHT22;32305;46.410;17.394;2023-07-08T06:01:15;20.20;54.30
43561;DHT22;32305;46.410;17.394;2023-07-08T06:03:42;20.20;54.60
43561;DHT22;32305;46.410;17.394;2023-07-08T06:06:09;20.10;54.50
43561;DHT22;32305;46.410;17.394;2023-07-08T06:08:36;20.10;54.80
43561;DHT22;32305;46.410;17.394;2023-07-08T06:11:03;20.10;55.10
43561;DHT22;32305;46.410;17.394;2023-07-08T06:13:30;20.10;55.60
43561;DHT22;32305;46.410;17.394;2023-07-08T06:15:57;20.10;55.70
43561;DHT22;32305;46.410;17.394;2023-07-08T06:18:24;20.10;55.90
43561;DHT22;32305;46.410;17.394;2023-07-08T06:20:52;20.20;56.20
43561;DHT22;32305;46.410;17.394;2023-07-08T06:23:19;20.20;56.40
43561;DHT22;32305;46.410;17.394;2023-07-08T06:25:46;20.30;56.10
43561;DHT22;32305;46.410;17.394;2023-07-08T06:28:13;20.30;56.30
43561;DHT22;32305;46.410;17.394;2023-07-08T06:30:40;20.30;56.30
43561;DHT22;32305;46.410;17.394;2023-07-08T06:33:07;20.30;56.10
43561;DHT22;32305;46.410;17.394;2023-07-08T06:35:34;20.30;56.20
43561;DHT22;32305;46.410;17.394;2023-07-08T06:38:01;20.30;56.20
43561;DHT22;32305;46.410;17.394;2023-07-08T06:40:28;20.40;56.20
43561;DHT22;32305;46.410;17.394;2023-07-08T06:42:55;20.40;56.20
43561;DHT22;32305;46.410;17.394;2023-07-08T06:45:22;20.40;56.20
43561;DHT22;32305;46.410;17.394;2023-07-08T06:47:49;20.40;56.40
43561;DHT22;32305;46.410;17.394;2023-07-08T06:50:16;20.40;56.50
43561;DHT22;32305;46.410;17.394;2023-07-08T06:52:43;20.50;56.60
43561;DHT22;32305;46.410;17.394;2023-07-08T06:55:10;20.50;56.50
43561;DHT22;32305;46.410;17.394;2023-07-08T06:57:37;20.50;56.60
43561;DHT22;32305;46.410;17.394;2023-07-08T07:00:08;20.60;56.50
43561;DHT22;32305;46.410;17.394;2023-07-08T07:02:36;20.60;56.50
43561;DHT22;32305;46.410;17.394;2023-07-08T07:05:04;20.60;56.60
43561;DHT22;32305;46.410;17.394;2023-07-08T07:07:31;20.60;56.60
43561;DHT22;32305;46.410;17.394;2023-07-08T07:09:58;20.60;56.70
43561;DHT22;32305;46.410;17.394;2023-07-08T07:12:25;20.70;56.70
43561;DHT22;32305;46.410;17.394;2023-07-08T07:14:55;20.70;56.80
43561;DHT22;32305;46.410;17.394;2023-07-08T07:17:22;20.80;56.90
43561;DHT22;32305;46.410;17.394;2023-07-08T07:19:50;20.80;56.80
43561;DHT22;32305;46.410;17.394;2023-07-08T07:22:17;20.80;56.80
43561;DHT22;32305;46.410;17.394;2023-07-08T07:24:44;20.80;56.80
43561;DHT22;32305;46.410;17.394;2023-07-08T07:27:11;20.80;56.80
43561;DHT22;32305;46.410;17.394;2023-07-08T07:29:40;20.90;57.00
43561;DHT22;32305;46.410;17.394;2023-07-08T07:32:08;20.90;57.00
43561;DHT22;32305;46.410;17.394;2023-07-08T07:34:35;20.90;56.90
43561;DHT22;32305;46.410;17.394;2023-07-08T07:37:02;20.90;56.70
43561;DHT22;32305;46.410;17.394;2023-07-08T07:39:29;20.90;57.00
43561;DHT22;32305;46.410;17.394;2023-07-08T07:41:56;20.90;56.90
43561;DHT22;32305;46.410;17.394;2023-07-08T07:44:23;21.00;57.10
43561;DHT22;32305;46.410;17.394;2023-07-08T07:46:52;21.00;57.10
43561;DHT22;32305;46.410;17.394;2023-07-08T07:49:19;21.00;57.10
43561;DHT22;32305;46.410;17.394;2023-07-08T07:51:46;21.00;57.10
43561;DHT22;32305;46.410;17.394;2023-07-08T07:54:13;21.00;57.20
43561;DHT22;32305;46.410;17.394;2023-07-08T07:56:40;21.00;57.20
43561;DHT22;32305;46.410;17.394;2023-07-08T07:59:07;21.00;57.30
43561;DHT22;32305;46.410;17.394;2023-07-08T08:01:34;21.10;57.30
43561;DHT22;32305;46.410;17.394;2023-07-08T08:04:01;21.10;57.40
43561;DHT22;32305;46.410;17.394;2023-07-08T08:06:28;21.00;57.30
43561;DHT22;32305;46.410;17.394;2023-07-08T08:08:55;21.10;57.50
43561;DHT22;32305;46.410;17.394;2023-07-08T08:11:24;21.10;57.40
43561;DHT22;32305;46.410;17.394;2023-07-08T08:13:52;21.10;57.60
43561;DHT22;32305;46.410;17.394;2023-07-08T08:16:20;21.10;57.60
43561;DHT22;32305;46.410;17.394;2023-07-08T08:18:47;21.10;57.50
43561;DHT22;32305;46.410;17.394;2023-07-08T08:21:14;21.10;57.60
43561;DHT22;32305;46.410;17.394;2023-07-08T08:23:41;21.20;57.70
43561;DHT22;32305;46.410;17.394;2023-07-08T08:26:08;21.20;57.50
43561;DHT22;32305;46.410;17.394;2023-07-08T08:28:35;21.20;57.60
43561;DHT22;32305;46.410;17.394;2023-07-08T08:31:02;21.20;57.70
43561;DHT22;32305;46.410;17.394;2023-07-08T08:33:29;21.10;57.50
43561;DHT22;32305;46.410;17.394;2023-07-08T08:35:56;21.20;57.70
43561;DHT22;32305;46.410;17.394;2023-07-08T08:38:24;21.20;57.60
43561;DHT22;32305;46.410;17.394;2023-07-08T08:40:51;21.20;57.50
43561;DHT22;32305;46.410;17.394;2023-07-08T08:43:21;21.20;57.60
43561;DHT22;32305;46.410;17.394;2023-07-08T08:48:38;21.20;57.30
43561;DHT22;32305;46.410;17.394;2023-07-08T08:51:09;21.20;57.30
43561;DHT22;32305;46.410;17.394;2023-07-08T08:53:39;21.20;57.20
43561;DHT22;32305;46.410;17.394;2023-07-08T08:56:13;21.20;57.10
43561;DHT22;32305;46.410;17.394;2023-07-08T08:58:53;21.20;56.90
43561;DHT22;32305;46.410;17.394;2023-07-08T09:01:21;21.20;57.00
43561;DHT22;32305;46.410;17.394;2023-07-08T09:03:54;21.10;57.00
43561;DHT22;32305;46.410;17.394;2023-07-08T09:06:27;21.20;57.00
43561;DHT22;32305;46.410;17.394;2023-07-08T09:08:54;21.10;57.10
43561;DHT22;32305;46.410;17.394;2023-07-08T09:11:36;21.20;57.20
43561;DHT22;32305;46.410;17.394;2023-07-08T09:14:07;21.10;57.30
43561;DHT22;32305;46.410;17.394;2023-07-08T09:16:39;21.10;57.30
43561;DHT22;32305;46.410;17.394;2023-07-08T09:19:10;21.20;57.20
43561;DHT22;32305;46.410;17.394;2023-07-08T09:21:55;21.20;57.40
43561;DHT22;32305;46.410;17.394;2023-07-08T09:24:32;21.20;57.30
43561;DHT22;32305;46.410;17.394;2023-07-08T09:26:59;21.20;57.20
43561;DHT22;32305;46.410;17.394;2023-07-08T09:29:28;21.20;57.30
43561;DHT22;32305;46.410;17.394;2023-07-08T09:31:55;21.20;57.10
43561;DHT22;32305;46.410;17.394;2023-07-08T09:34:23;21.30;56.90
43561;DHT22;32305;46.410;17.394;2023-07-08T09:36:50;21.20;56.80
43561;DHT22;32305;46.410;17.394;2023-07-08T09:39:19;21.20;56.90
43561;DHT22;32305;46.410;17.394;2023-07-08T09:41:48;21.30;56.80
43561;DHT22;32305;46.410;17.394;2023-07-08T09:44:16;21.30;56.60
43561;DHT22;32305;46.410;17.394;2023-07-08T09:46:44;21.30;56.70
43561;DHT22;32305;46.410;17.394;2023-07-08T09:49:16;21.30;56.70
43561;DHT22;32305;46.410;17.394;2023-07-08T09:51:45;21.30;56.70
43561;DHT22;32305;46.410;17.394;2023-07-08T09:54:12;21.30;56.80
43561;DHT22;32305;46.410;17.394;2023-07-08T09:56:41;21.30;56.70
43561;DHT22;32305;46.410;17.394;2023-07-08T09:59:12;21.30;56.60
43561;DHT22;32305;46.410;17.394;2023-07-08T10:01:39;21.30;56.50
43561;DHT22;32305;46.410;17.394;2023-07-08T10:04:06;21.30;56.30
43561;DHT22;32305;46.410;17.394;2023-07-08T10:06:34;21.30;56.20
43561;DHT22;32305;46.410;17.394;2023-07-08T10:09:03;21.30;56.20
43561;DHT22;32305;46.410;17.394;2023-07-08T10:11:32;21.30;55.90
43561;DHT22;32305;46.410;17.394;2023-07-08T10:14:01;21.30;55.80
43561;DHT22;32305;46.410;17.394;2023-07-08T10:16:40;21.20;55.80
43561;DHT22;32305;46.410;17.394;2023-07-08T10:19:09;21.20;55.80
43561;DHT22;32305;46.410;17.394;2023-07-08T10:21:55;21.20;55.60
43561;DHT22;32305;46.410;17.394;2023-07-08T10:24:44;21.20;55.40
43561;DHT22;32305;46.410;17.394;2023-07-08T10:30:19;21.20;55.20
43561;DHT22;32305;46.410;17.394;2023-07-08T10:35:36;21.20;55.00
43561;DHT22;32305;46.410;17.394;2023-07-08T10:38:13;21.20;54.90
43561;DHT22;32305;46.410;17.394;2023-07-08T10:40:47;21.20;54.90
43561;DHT22;32305;46.410;17.394;2023-07-08T10:43:30;21.10;54.70
43561;DHT22;32305;46.410;17.394;2023-07-08T10:46:06;21.10;54.50
43561;DHT22;32305;46.410;17.394;2023-07-08T10:59:52;21.10;54.80
43561;DHT22;32305;46.410;17.394;2023-07-08T11:05:30;21.00;54.90
43561;DHT22;32305;46.410;17.394;2023-07-08T11:07:59;21.10;55.20
43561;DHT22;32305;46.410;17.394;2023-07-08T11:10:36;21.00;55.60
43561;DHT22;32305;46.410;17.394;2023-07-08T11:13:11;21.10;54.90
43561;DHT22;32305;46.410;17.394;2023-07-08T11:15:44;21.10;54.80
43561;DHT22;32305;46.410;17.394;2023-07-08T11:18:16;21.10;54.60
43561;DHT22;32305;46.410;17.394;2023-07-08T11:23:39;21.10;54.30
43561;DHT22;32305;46.410;17.394;2023-07-08T11:28:55;21.20;54.70
43561;DHT22;32305;46.410;17.394;2023-07-08T11:31:23;21.10;54.50
43561;DHT22;32305;46.410;17.394;2023-07-08T11:33:51;21.10;54.70
43561;DHT22;32305;46.410;17.394;2023-07-08T11:36:19;21.10;54.60
43561;DHT22;32305;46.410;17.394;2023-07-08T11:38:50;21.10;54.50
43561;DHT22;32305;46.410;17.394;2023-07-08T11:41:18;21.00;54.40
43561;DHT22;32305;46.410;17.394;2023-07-08T11:43:48;21.00;54.40
43561;DHT22;32305;46.410;17.394;2023-07-08T11:46:19;21.00;54.20
43561;DHT22;32305;46.410;17.394;2023-07-08T11:48:48;20.90;54.40
43561;DHT22;32305;46.410;17.394;2023-07-08T11:51:29;20.90;54.40
43561;DHT22;32305;46.410;17.394;2023-07-08T11:56:48;20.80;54.40
43561;DHT22;32305;46.410;17.394;2023-07-08T11:59:17;20.80;54.40
43561;DHT22;32305;46.410;17.394;2023-07-08T12:01:46;20.80;54.50
43561;DHT22;32305;46.410;17.394;2023-07-08T12:04:24;20.80;54.50
43561;DHT22;32305;46.410;17.394;2023-07-08T12:07:03;20.80;54.60
43561;DHT22;32305;46.410;17.394;2023-07-08T12:09:43;20.80;54.40
43561;DHT22;32305;46.410;17.394;2023-07-08T12:12:19;20.80;54.70
43561;DHT22;32305;46.410;17.394;2023-07-08T12:14:47;20.80;54.70
43561;DHT22;32305;46.410;17.394;2023-07-08T12:17:14;20.80;54.70
43561;DHT22;32305;46.410;17.394;2023-07-08T12:19:42;20.80;54.70
43561;DHT22;32305;46.410;17.394;2023-07-08T12:22:10;20.80;54.70
43561;DHT22;32305;46.410;17.394;2023-07-08T12:24:39;20.90;54.70
43561;DHT22;32305;46.410;17.394;2023-07-08T12:27:08;20.90;54.80
43561;DHT22;32305;46.410;17.394;2023-07-08T12:29:36;20.90;54.80
43561;DHT22;32305;46.410;17.394;2023-07-08T12:32:03;20.90;54.70
43561;DHT22;32305;46.410;17.394;2023-07-08T12:34:30;20.90;54.80
43561;DHT22;32305;46.410;17.394;2023-07-08T12:36:58;21.00;54.90
43561;DHT22;32305;46.410;17.394;2023-07-08T12:39:25;20.90;54.90
43561;DHT22;32305;46.410;17.394;2023-07-08T12:41:51;21.00;55.10
43561;DHT22;32305;46.410;17.394;2023-07-08T12:44:21;21.00;54.90
43561;DHT22;32305;46.410;17.394;2023-07-08T12:46:49;21.00;55.00
43561;DHT22;32305;46.410;17.394;2023-07-08T12:49:16;21.00;55.60
43561;DHT22;32305;46.410;17.394;2023-07-08T12:51:46;21.10;55.50
43561;DHT22;32305;46.410;17.394;2023-07-08T12:54:13;21.10;55.30
43561;DHT22;32305;46.410;17.394;2023-07-08T12:56:42;21.10;55.20
43561;DHT22;32305;46.410;17.394;2023-07-08T12:59:12;21.10;55.00
43561;DHT22;32305;46.410;17.394;2023-07-08T13:01:40;21.10;54.80
43561;DHT22;32305;46.410;17.394;2023-07-08T13:04:09;21.10;54.80
43561;DHT22;32305;46.410;17.394;2023-07-08T13:06:37;21.20;54.70
43561;DHT22;32305;46.410;17.394;2023-07-08T13:09:14;21.10;54.50
43561;DHT22;32305;46.410;17.394;2023-07-08T13:11:46;21.20;54.70
43561;DHT22;32305;46.410;17.394;2023-07-08T13:14:13;21.20;54.60
43561;DHT22;32305;46.410;17.394;2023-07-08T13:16:41;21.10;54.50
43561;DHT22;32305;46.410;17.394;2023-07-08T13:19:09;21.10;54.50
43561;DHT22;32305;46.410;17.394;2023-07-08T13:21:38;21.10;54.40
43561;DHT22;32305;46.410;17.394;2023-07-08T13:24:11;21.10;54.50
43561;DHT22;32305;46.410;17.394;2023-07-08T13:26:39;21.10;54.50
43561;DHT22;32305;46.410;17.394;2023-07-08T13:29:17;21.00;54.40
43561;DHT22;32305;46.410;17.394;2023-07-08T13:31:53;21.10;54.40
43561;DHT22;32305;46.410;17.394;2023-07-08T13:34:22;21.00;54.30
43561;DHT22;32305;46.410;17.394;2023-07-08T13:36:51;21.00;54.20
43561;DHT22;32305;46.410;17.394;2023-07-08T13:39:26;21.00;54.10
43561;DHT22;32305;46.410;17.394;2023-07-08T13:41:54;21.00;54.30
43561;DHT22;32305;46.410;17.394;2023-07-08T13:44:24;21.00;54.10
43561;DHT22;32305;46.410;17.394;2023-07-08T13:46:52;21.00;54.20
43561;DHT22;32305;46.410;17.394;2023-07-08T13:49:25;21.00;54.20
43561;DHT22;32305;46.410;17.394;2023-07-08T13:52:06;21.00;54.10
43561;DHT22;32305;46.410;17.394;2023-07-08T13:54:35;21.00;54.40
43561;DHT22;32305;46.410;17.394;2023-07-08T13:57:08;20.90;54.50
43561;DHT22;32305;46.410;17.394;2023-07-08T13:59:35;20.90;54.60
43561;DHT22;32305;46.410;17.394;2023-07-08T14:02:08;20.90;54.80
43561;DHT22;32305;46.410;17.394;2023-07-08T14:04:40;21.00;56.80
43561;DHT22;32305;46.410;17.394;2023-07-08T14:07:14;21.10;60.50
43561;DHT22;32305;46.410;17.394;2023-07-08T14:09:42;21.30;61.00
43561;DHT22;32305;46.410;17.394;2023-07-08T14:12:09;21.70;61.90
43561;DHT22;32305;46.410;17.394;2023-07-08T14:14:36;22.00;61.60
43561;DHT22;32305;46.410;17.394;2023-07-08T14:17:03;22.20;61.60
43561;DHT22;32305;46.410;17.394;2023-07-08T14:19:30;22.50;61.30
43561;DHT22;32305;46.410;17.394;2023-07-08T14:22:06;22.70;61.00
43561;DHT22;32305;46.410;17.394;2023-07-08T14:24:34;23.00;61.10
43561;DHT22;32305;46.410;17.394;2023-07-08T14:27:01;23.20;61.00
43561;DHT22;32305;46.410;17.394;2023-07-08T14:29:28;23.40;61.10
43561;DHT22;32305;46.410;17.394;2023-07-08T14:31:56;23.60;60.90
43561;DHT22;32305;46.410;17.394;2023-07-08T14:34:23;23.70;60.50
43561;DHT22;32305;46.410;17.394;2023-07-08T14:36:51;23.90;60.40
43561;DHT22;32305;46.410;17.394;2023-07-08T14:39:19;24.10;60.20
43561;DHT22;32305;46.410;17.394;2023-07-08T14:41:47;24.20;60.00
43561;DHT22;32305;46.410;17.394;2023-07-08T14:44:27;24.30;59.70
43561;DHT22;32305;46.410;17.394;2023-07-08T14:46:57;24.50;59.40
43561;DHT22;32305;46.410;17.394;2023-07-08T14:49:25;24.60;59.10
43561;DHT22;32305;46.410;17.394;2023-07-08T14:51:52;24.70;58.60
43561;DHT22;32305;46.410;17.394;2023-07-08T14:54:19;24.90;58.30
43561;DHT22;32305;46.410;17.394;2023-07-08T14:56:47;25.00;57.70
43561;DHT22;32305;46.410;17.394;2023-07-08T14:59:15;25.10;57.30
43561;DHT22;32305;46.410;17.394;2023-07-08T15:01:43;25.20;56.70
43561;DHT22;32305;46.410;17.394;2023-07-08T15:04:10;25.40;56.10
43561;DHT22;32305;46.410;17.394;2023-07-08T15:06:38;25.50;55.30
43561;DHT22;32305;46.410;17.394;2023-07-08T15:09:05;25.60;54.60
43561;DHT22;32305;46.410;17.394;2023-07-08T15:11:38;25.70;53.80
43561;DHT22;32305;46.410;17.394;2023-07-08T15:14:08;25.80;53.10
43561;DHT22;32305;46.410;17.394;2023-07-08T15:16:36;25.90;52.40
43561;DHT22;32305;46.410;17.394;2023-07-08T15:19:08;26.10;52.10
43561;DHT22;32305;46.410;17.394;2023-07-08T15:21:36;26.10;51.60
43561;DHT22;32305;46.410;17.394;2023-07-08T15:24:03;26.30;51.20
43561;DHT22;32305;46.410;17.394;2023-07-08T15:26:30;26.30;50.70
43561;DHT22;32305;46.410;17.394;2023-07-08T15:28:57;26.40;50.50
43561;DHT22;32305;46.410;17.394;2023-07-08T15:31:24;26.50;50.60
43561;DHT22;32305;46.410;17.394;2023-07-08T15:33:52;26.60;49.80
43561;DHT22;32305;46.410;17.394;2023-07-08T15:36:19;26.60;49.50
43561;DHT22;32305;46.410;17.394;2023-07-08T15:38:46;26.70;49.30
43561;DHT22;32305;46.410;17.394;2023-07-08T15:41:20;26.80;49.10
43561;DHT22;32305;46.410;17.394;2023-07-08T15:43:48;26.80;48.80
43561;DHT22;32305;46.410;17.394;2023-07-08T15:46:16;26.90;48.50
43561;DHT22;32305;46.410;17.394;2023-07-08T15:48:43;27.00;48.80
43561;DHT22;32305;46.410;17.394;2023-07-08T15:51:12;27.10;48.00
43561;DHT22;32305;46.410;17.394;2023-07-08T15:53:40;27.20;47.70
43561;DHT22;32305;46.410;17.394;2023-07-08T15:56:14;27.30;47.50